createdAt,value
2022-09-09T00:02:29.413Z,93869.91
2022-09-09T00:05:02.373Z,93865.28
2022-09-09T00:07:37.180Z,93865.28
2022-09-09T00:10:10.988Z,93865.28
2022-09-09T00:12:40.944Z,93863.66
2022-09-09T00:15:13.309Z,93863.66
2022-09-09T00:17:43.168Z,93869.91
2022-09-09T00:20:34.234Z,93867.19
2022-09-09T00:23:04.171Z,93864.47
2022-09-09T00:25:35.112Z,93867.19
2022-09-09T00:28:03.018Z,93863.97
2022-09-09T00:30:33.665Z,93866.69
2022-09-09T00:33:02.570Z,93862.31
2022-09-09T00:35:33.226Z,93870.47
2022-09-09T00:38:03.744Z,93876.22
2022-09-09T00:40:33.702Z,93866.44
2022-09-09T00:43:11.686Z,93865.63
2022-09-09T00:46:27.847Z,93856.66
2022-09-09T00:48:59.948Z,93859.66
2022-09-09T00:51:32.816Z,93853.94
2022-09-09T00:54:24.945Z,93865.09
2022-09-09T00:56:56.025Z,93861.03
2022-09-09T00:59:28.596Z,93865.69
2022-09-09T01:01:56.556Z,93860.25
2022-09-09T01:04:29.911Z,93864.84
2022-09-09T01:07:01.618Z,93866.78
2022-09-09T01:09:30.393Z,93861.63
2022-09-09T01:12:01.572Z,93858.09
2022-09-09T01:14:37.420Z,93865.16
2022-09-09T01:17:06.455Z,93865.16
2022-09-09T01:19:40.347Z,93858.09
2022-09-09T01:22:12.675Z,93856.50
2022-09-09T01:24:41.254Z,93858.38
2022-09-09T01:27:10.172Z,93852.94
2022-09-09T01:29:37.865Z,93854.84
2022-09-09T01:32:43.389Z,93848.88
2022-09-09T01:35:12.794Z,93855.16
2022-09-09T01:37:40.345Z,93851.59
2022-09-09T01:40:09.095Z,93855.94
2022-09-09T01:42:36.681Z,93844.53
2022-09-09T01:45:04.507Z,93841.03
2022-09-09T01:47:32.257Z,93838.31
2022-09-09T01:50:01.133Z,93836.69
2022-09-09T01:52:28.665Z,93832.03
2022-09-09T01:54:56.233Z,93831.25
2022-09-09T01:57:25.310Z,93828.53
2022-09-09T02:00:00.896Z,93828.81
2022-09-09T02:02:29.734Z,93824.97
2022-09-09T02:04:58.941Z,93832.03
2022-09-09T02:07:34.510Z,93830.41
2022-09-09T02:10:03.962Z,93832.63
2022-09-09T02:12:31.503Z,93831.78
2022-09-09T02:15:05.882Z,93835.34
2022-09-09T02:17:35.126Z,93825.56
2022-09-09T02:20:06.158Z,93831.00
2022-09-09T02:22:35.739Z,93829.38
2022-09-09T02:25:03.330Z,93829.38
2022-09-09T02:27:30.849Z,93823.63
2022-09-09T02:29:58.571Z,93827.19
2022-09-09T02:32:26.110Z,93819.31
2022-09-09T02:34:56.020Z,93820.13
2022-09-09T02:37:26.058Z,93825.06
2022-09-09T02:39:55.142Z,93827.75
2022-09-09T02:42:23.277Z,93823.44
2022-09-09T02:44:50.801Z,93825.31
2022-09-09T02:47:29.150Z,93827.25
2022-09-09T02:50:03.241Z,93838.13
2022-09-09T02:52:34.612Z,93840.28
2022-09-09T02:55:06.953Z,93837.56
2022-09-09T02:57:34.455Z,93829.16
2022-09-09T03:00:02.611Z,93827.81
2022-09-09T03:02:30.286Z,93832.13
2022-09-09T03:04:57.942Z,93817.75
2022-09-09T03:07:25.446Z,93822.88
2022-09-09T03:09:53.533Z,93819.66
2022-09-09T03:12:22.487Z,93814.19
2022-09-09T03:14:50.718Z,93816.13
2022-09-09T03:17:18.683Z,93818.84
2022-09-09T03:19:46.182Z,93819.66
2022-09-09T03:22:14.239Z,93823.47
2022-09-09T03:24:41.780Z,93822.66
2022-09-09T03:27:09.372Z,93816.41
2022-09-09T03:29:38.244Z,93814.50
2022-09-09T03:32:06.164Z,93802.81
2022-09-09T03:34:33.873Z,93801.19
2022-09-09T03:37:01.497Z,93808.56
2022-09-09T03:39:30.003Z,93812.88
2022-09-09T03:41:57.555Z,93808.56
2022-09-09T03:44:25.157Z,93800.41
2022-09-09T03:46:54.046Z,93808.56
2022-09-09T03:49:22.992Z,93802.28
2022-09-09T03:51:50.517Z,93809.63
2022-09-09T03:54:18.187Z,93809.63
2022-09-09T03:56:46.550Z,93805.28
2022-09-09T03:59:15.245Z,93810.72
2022-09-09T04:01:42.769Z,93814.53
2022-09-09T04:04:13.004Z,93813.75
2022-09-09T04:06:40.516Z,93811.03
2022-09-09T04:09:08.045Z,93808.00
2022-09-09T04:11:35.697Z,93804.75
2022-09-09T04:14:03.200Z,93803.97
2022-09-09T04:16:30.835Z,93802.88
2022-09-09T04:18:59.125Z,93790.38
2022-09-09T04:21:28.187Z,93796.09
2022-09-09T04:23:55.708Z,93801.25
2022-09-09T04:26:23.404Z,93804.25
2022-09-09T04:28:51.328Z,93798.00
2022-09-09T04:31:21.111Z,93794.47
2022-09-09T04:33:48.829Z,93799.09
2022-09-09T04:36:16.353Z,93796.09
2022-09-09T04:38:45.552Z,93798.28
2022-09-09T04:41:13.206Z,93798.00
2022-09-09T04:43:40.786Z,93795.56
2022-09-09T04:46:08.521Z,93793.66
2022-09-09T04:48:36.262Z,93793.66
2022-09-09T04:51:05.649Z,93797.19
2022-09-09T04:53:34.954Z,93801.00
2022-09-09T04:56:08.292Z,93791.75
2022-09-09T04:58:36.716Z,93786.31
2022-09-09T05:01:06.226Z,93789.56
2022-09-09T05:03:33.789Z,93792.78
2022-09-09T05:06:06.475Z,93801.81
2022-09-09T05:08:34.105Z,93794.75
2022-09-09T05:11:01.674Z,93806.44
2022-09-09T05:13:32.341Z,93804.75
2022-09-09T05:15:59.954Z,93814.00
2022-09-09T05:18:27.503Z,93808.75
2022-09-09T05:20:58.767Z,93802.47
2022-09-09T05:23:26.537Z,93811.97
2022-09-09T05:25:57.925Z,93811.66
2022-09-09T05:28:26.689Z,93814.09
2022-09-09T05:30:59.635Z,93811.91
2022-09-09T05:33:27.654Z,93810.28
2022-09-09T05:35:59.980Z,93808.38
2022-09-09T05:38:28.869Z,93810.00
2022-09-09T05:40:56.957Z,93808.91
2022-09-09T05:43:24.693Z,93817.84
2022-09-09T05:46:03.109Z,93829.56
2022-09-09T05:48:31.804Z,93826.84
2022-09-09T05:50:59.575Z,93833.06
2022-09-09T05:53:27.536Z,93837.72
2022-09-09T05:56:04.268Z,93833.06
2022-09-09T05:58:32.114Z,93844.78
2022-09-09T06:01:05.704Z,93844.78
2022-09-09T06:03:33.323Z,93854.84
2022-09-09T06:06:01.983Z,93861.94
2022-09-09T06:08:29.585Z,93854.84
2022-09-09T06:11:03.907Z,93866.53
2022-09-09T06:13:34.769Z,93856.50
2022-09-09T06:16:04.234Z,93863.00
2022-09-09T06:18:31.858Z,93863.81
2022-09-09T06:20:59.881Z,93856.50
2022-09-09T06:23:27.636Z,93861.09
2022-09-09T06:26:02.937Z,93855.66
2022-09-09T06:28:30.525Z,93858.38
2022-09-09T06:31:01.469Z,93859.47
2022-09-09T06:33:32.838Z,93853.75
2022-09-09T06:36:00.396Z,93857.28
2022-09-09T06:38:28.541Z,93863.00
2022-09-09T06:40:56.617Z,93869.25
2022-09-09T06:43:24.157Z,93871.97
2022-09-09T06:45:56.225Z,93880.16
2022-09-09T06:48:23.915Z,93880.16
2022-09-09T06:50:52.797Z,93880.16
2022-09-09T06:53:20.909Z,93882.03
2022-09-09T06:55:48.927Z,93882.88
2022-09-09T06:58:16.623Z,93880.16
2022-09-09T07:00:44.404Z,93882.03
2022-09-09T07:03:12.101Z,93882.88
2022-09-09T07:05:39.629Z,93893.75
2022-09-09T07:08:08.519Z,93897.28
2022-09-09T07:10:36.591Z,93897.28
2022-09-09T07:13:05.575Z,93896.47
2022-09-09T07:15:34.676Z,93892.66
2022-09-09T07:18:03.161Z,93889.13
2022-09-09T07:20:30.720Z,93895.38
2022-09-09T07:22:59.393Z,93889.13
2022-09-09T07:25:29.899Z,93889.13
2022-09-09T07:27:57.852Z,93887.22
2022-09-09T07:30:27.767Z,93890.75
2022-09-09T07:32:57.831Z,93888.03
2022-09-09T07:35:25.443Z,93883.69
2022-09-09T07:37:53.066Z,93875.53
2022-09-09T07:40:21.674Z,93878.25
2022-09-09T07:42:50.664Z,93881.75
2022-09-09T07:45:18.258Z,93886.41
2022-09-09T07:47:45.999Z,93887.22
2022-09-09T07:50:13.643Z,93886.41
2022-09-09T07:52:41.540Z,93896.19
2022-09-09T07:55:10.212Z,93895.38
2022-09-09T07:57:57.696Z,93891.03
2022-09-09T08:00:25.362Z,93893.75
2022-09-09T08:02:55.150Z,93893.75
2022-09-09T08:05:23.291Z,93895.38
2022-09-09T08:07:50.842Z,93889.13
2022-09-09T08:10:18.984Z,93896.19
2022-09-09T08:13:01.342Z,93910.91
2022-09-09T08:15:36.024Z,93905.44
2022-09-09T08:18:03.598Z,93908.97
2022-09-09T08:20:31.156Z,93923.41
2022-09-09T08:22:59.892Z,93919.06
2022-09-09T08:25:27.511Z,93938.09
2022-09-09T08:27:55.118Z,93933.44
2022-09-09T08:30:22.635Z,93928.84
2022-09-09T08:32:53.889Z,93925.28
2022-09-09T08:35:21.872Z,93926.13
2022-09-09T08:37:51.526Z,93917.97
2022-09-09T08:40:22.429Z,93924.50
2022-09-09T08:42:50.217Z,93927.22
2022-09-09T08:45:23.699Z,93917.97
2022-09-09T08:47:58.635Z,93923.41
2022-09-09T08:50:27.585Z,93924.50
2022-09-09T08:52:58.270Z,93925.28
2022-09-09T08:55:34.223Z,93928.00
2022-09-09T08:58:03.777Z,93928.00
2022-09-09T09:00:36.390Z,93932.34
2022-09-09T09:03:08.268Z,93929.94
2022-09-09T09:05:39.021Z,93931.56
2022-09-09T09:08:10.356Z,93924.19
2022-09-09T09:10:44.963Z,93927.22
2022-09-09T09:13:17.935Z,93934.28
2022-09-09T09:15:45.925Z,93936.16
2022-09-09T09:18:15.053Z,93941.63
2022-09-09T09:20:48.619Z,93928.28
2022-09-09T09:23:19.329Z,93938.09
2022-09-09T09:25:46.891Z,93940.81
2022-09-09T09:28:18.238Z,93940.00
2022-09-09T09:30:48.393Z,93932.66
2022-09-09T09:33:19.649Z,93944.34
2022-09-09T09:35:47.184Z,93937.28
2022-09-09T09:41:06.291Z,93947.06
2022-09-09T09:43:35.069Z,93956.84
2022-09-09T09:46:18.364Z,93954.41
2022-09-09T09:48:47.715Z,93948.97
2022-09-09T09:51:17.006Z,93948.97
2022-09-09T09:53:44.645Z,93954.41
2022-09-09T09:56:13.691Z,93947.31
2022-09-09T09:58:51.542Z,93944.34
2022-09-09T10:01:22.828Z,93948.16
2022-09-09T10:03:53.908Z,93943.53
2022-09-09T10:06:31.731Z,93940.81
2022-09-09T10:08:59.277Z,93942.72
2022-09-09T10:11:35.782Z,93945.44
2022-09-09T10:14:16.014Z,93953.00
2022-09-09T10:16:53.276Z,93946.78
2022-09-09T10:19:28.603Z,93951.91
2022-09-09T10:22:02.562Z,93946.47
2022-09-09T10:24:45.305Z,93941.84
2022-09-09T10:27:17.815Z,93949.72
2022-09-09T10:30:09.573Z,93945.09
2022-09-09T10:32:42.840Z,93945.63
2022-09-09T10:35:33.833Z,93956.50
2022-09-09T10:38:19.372Z,93958.13
2022-09-09T10:41:01.432Z,93948.88
2022-09-09T10:43:50.525Z,93955.13
2022-09-09T10:46:19.906Z,93958.66
2022-09-09T10:48:58.876Z,93950.47
2022-09-09T10:51:31.361Z,93963.81
2022-09-09T10:54:13.634Z,93960.25
2022-09-09T10:56:42.372Z,93961.91
2022-09-09T10:59:14.025Z,93956.47
2022-09-09T11:01:45.585Z,93952.94
2022-09-09T11:04:16.053Z,93954.81
2022-09-09T11:06:47.366Z,93958.38
2022-09-09T11:09:18.187Z,93953.75
2022-09-09T11:11:48.049Z,93961.91
2022-09-09T11:14:17.477Z,93950.22
2022-09-09T11:16:49.078Z,93948.31
2022-09-09T11:19:19.761Z,93950.22
2022-09-09T11:21:49.394Z,93949.09
2022-09-09T11:24:20.084Z,93947.50
2022-09-09T11:26:50.531Z,93946.66
2022-09-09T11:29:28.038Z,93941.22
2022-09-09T11:32:02.648Z,93941.22
2022-09-09T11:34:38.414Z,93935.78
2022-09-09T11:37:43.695Z,93942.31
2022-09-09T11:40:16.961Z,93935.78
2022-09-09T11:42:44.508Z,93936.09
2022-09-09T11:45:22.978Z,93934.16
2022-09-09T11:47:54.599Z,93934.47
2022-09-09T11:50:36.015Z,93931.44
2022-09-09T11:53:21.778Z,93942.31
2022-09-09T11:55:49.320Z,93935.25
2022-09-09T11:58:39.926Z,93945.03
2022-09-09T12:01:31.995Z,93948.06
2022-09-09T12:04:17.503Z,93940.69
2022-09-09T12:06:51.730Z,93943.41
2022-09-09T12:09:25.213Z,93943.41
2022-09-09T12:11:52.808Z,93945.34
2022-09-09T12:14:24.720Z,93941.81
2022-09-09T12:16:52.864Z,93942.63
2022-09-09T12:19:24.812Z,93934.47
2022-09-09T12:21:59.919Z,93934.47
2022-09-09T12:24:32.840Z,93935.56
2022-09-09T12:27:02.441Z,93930.91
2022-09-09T12:29:31.903Z,93931.75
2022-09-09T12:32:02.179Z,93928.19
2022-09-09T12:34:36.765Z,93932.53
2022-09-09T12:37:06.812Z,93930.91
2022-09-09T12:39:37.415Z,93927.09
2022-09-09T12:42:05.346Z,93922.75
2022-09-09T12:44:33.675Z,93925.47
2022-09-09T12:47:02.428Z,93914.59
2022-09-09T12:49:35.081Z,93921.66
2022-09-09T12:52:04.132Z,93909.97
2022-09-09T12:54:31.664Z,93916.22
2022-09-09T12:57:00.549Z,93911.59
2022-09-09T12:59:28.997Z,93906.94
2022-09-09T13:01:59.760Z,93908.88
2022-09-09T13:04:27.441Z,93895.28
2022-09-09T13:06:56.323Z,93894.97
2022-09-09T13:09:23.942Z,93890.63
2022-09-09T13:11:52.429Z,93890.63
2022-09-09T13:14:24.960Z,93890.34
2022-09-09T13:16:59.065Z,93886.00
2022-09-09T13:19:28.832Z,93882.19
2022-09-09T13:21:56.599Z,93883.00
2022-09-09T13:24:29.383Z,93879.47
2022-09-09T13:26:58.378Z,93881.09
2022-09-09T13:29:27.276Z,93878.38
2022-09-09T13:31:54.849Z,93876.47
2022-09-09T13:34:29.426Z,93873.75
2022-09-09T13:37:00.024Z,93883.53
2022-09-09T13:39:27.557Z,93874.53
2022-09-09T13:41:55.689Z,93869.91
2022-09-09T13:44:24.990Z,93883.22
2022-09-09T13:47:07.997Z,93875.38
2022-09-09T13:49:37.678Z,93878.09
2022-09-09T13:52:06.991Z,93863.38
2022-09-09T13:54:34.531Z,93865.28
2022-09-09T13:57:02.481Z,93866.09
2022-09-09T13:59:53.874Z,93871.53
2022-09-09T14:02:19.042Z,93862.28
2022-09-09T14:04:46.721Z,93854.38
2022-09-09T14:07:14.592Z,93857.94
2022-09-09T14:09:42.340Z,93856.84
2022-09-09T14:12:11.083Z,93859.56
2022-09-09T14:14:38.625Z,93856.84
2022-09-09T14:17:07.969Z,93856.84
2022-09-09T14:19:37.949Z,93856.00
2022-09-09T14:22:05.530Z,93861.44
2022-09-09T14:24:33.510Z,93856.84
2022-09-09T14:27:01.038Z,93863.38
2022-09-09T14:29:28.532Z,93859.56
2022-09-09T14:31:56.272Z,93861.22
2022-09-09T14:34:23.800Z,93863.94
2022-09-09T14:36:52.802Z,93858.47
2022-09-09T14:39:20.433Z,93853.84
2022-09-09T14:41:47.983Z,93855.47
2022-09-09T14:44:17.006Z,93845.41
2022-09-09T14:46:44.578Z,93849.22
2022-09-09T14:49:13.688Z,93848.13
2022-09-09T14:51:41.258Z,93850.84
2022-09-09T14:54:10.204Z,93849.22
2022-09-09T14:56:37.754Z,93851.94
2022-09-09T14:59:05.500Z,93855.47
2022-09-09T15:01:34.887Z,93850.31
2022-09-09T15:04:04.154Z,93850.03
2022-09-09T15:06:33.890Z,93843.78
2022-09-09T15:09:01.504Z,93852.22
2022-09-09T15:11:31.682Z,93843.22
2022-09-09T15:13:59.198Z,93839.44
2022-09-09T15:16:28.117Z,93844.88
2022-09-09T15:18:56.580Z,93846.78
2022-09-09T15:21:25.033Z,93845.94
2022-09-09T15:23:53.205Z,93849.50
2022-09-09T15:26:21.658Z,93851.41
2022-09-09T15:28:51.729Z,93845.94
2022-09-09T15:31:20.245Z,93846.78
2022-09-09T15:33:50.753Z,93843.22
2022-09-09T15:36:19.384Z,93844.88
2022-09-09T15:38:47.040Z,93846.78
2022-09-09T15:41:15.036Z,93841.34
2022-09-09T15:43:45.358Z,93843.78
2022-09-09T15:46:29.056Z,93845.63
2022-09-09T15:48:57.330Z,93834.41
2022-09-09T15:51:41.727Z,93834.84
2022-09-09T15:54:10.810Z,93835.81
2022-09-09T15:56:38.334Z,93841.41
2022-09-09T15:59:05.861Z,93835.63
2022-09-09T16:01:35.267Z,93838.81
2022-09-09T16:04:04.477Z,93831.06
2022-09-09T16:06:35.216Z,93829.41
2022-09-09T16:09:05.097Z,93836.16
2022-09-09T16:11:33.733Z,93831.81
2022-09-09T16:14:04.939Z,93827.47
2022-09-09T16:16:34.195Z,93830.47
2022-09-09T16:19:02.349Z,93825.63
2022-09-09T16:21:30.728Z,93830.03
2022-09-09T16:24:00.287Z,93824.09
2022-09-09T16:26:28.639Z,93827.09
2022-09-09T16:28:56.288Z,93829.28
2022-09-09T16:31:24.729Z,93827.97
2022-09-09T16:33:53.711Z,93828.56
2022-09-09T16:36:22.246Z,93828.56
2022-09-09T16:38:49.818Z,93830.47
2022-09-09T16:41:17.429Z,93828.03
2022-09-09T16:43:44.984Z,93826.13
2022-09-09T16:46:14.771Z,93818.47
2022-09-09T16:48:42.477Z,93816.50
2022-09-09T16:51:15.152Z,93813.41
2022-09-09T16:53:44.025Z,93810.31
2022-09-09T16:56:13.125Z,93808.31
2022-09-09T16:58:40.770Z,93818.84
2022-09-09T17:01:08.423Z,93814.94
2022-09-09T17:03:35.962Z,93816.00
2022-09-09T17:06:03.938Z,93819.47
2022-09-09T17:08:34.272Z,93826.47
2022-09-09T17:11:01.820Z,93822.03
2022-09-09T17:13:29.333Z,93827.19
2022-09-09T17:16:02.230Z,93824.47
2022-09-09T17:18:30.637Z,93836.06
2022-09-09T17:20:58.247Z,93826.50
2022-09-09T17:23:29.442Z,93825.91
2022-09-09T17:26:01.308Z,93822.88
2022-09-09T17:28:32.098Z,93826.63
2022-09-09T17:31:01.691Z,93838.03
2022-09-09T17:33:31.707Z,93841.00
2022-09-09T17:36:00.408Z,93841.81
2022-09-09T17:38:47.773Z,93845.84
2022-09-09T17:41:17.850Z,93842.03
2022-09-09T17:43:47.090Z,93848.78
2022-09-09T17:46:20.679Z,93844.94
2022-09-09T17:48:48.782Z,93853.97
2022-09-09T17:51:20.232Z,93848.50
2022-09-09T17:53:48.894Z,93852.03
2022-09-09T17:56:22.085Z,93856.09
2022-09-09T17:58:50.092Z,93851.44
2022-09-09T18:01:19.304Z,93851.72
2022-09-09T18:03:48.974Z,93866.19
2022-09-09T18:06:18.368Z,93860.41
2022-09-09T18:08:50.034Z,93870.22
2022-09-09T18:11:17.945Z,93871.03
2022-09-09T18:13:49.913Z,93870.22
2022-09-09T18:16:18.642Z,93871.03
2022-09-09T18:18:47.009Z,93878.41
2022-09-09T18:21:15.077Z,93874.56
2022-09-09T18:23:47.070Z,93887.09
2022-09-09T18:26:16.174Z,93887.09
2022-09-09T18:28:44.341Z,93887.63
2022-09-09T18:31:14.785Z,93896.59
2022-09-09T18:33:44.007Z,93904.78
2022-09-09T18:36:12.603Z,93900.16
2022-09-09T18:38:40.200Z,93905.63
2022-09-09T18:41:15.542Z,93900.16
2022-09-09T18:43:43.401Z,93905.28
2022-09-09T18:46:11.608Z,93908.03
2022-09-09T18:48:40.717Z,93909.97
2022-09-09T18:51:09.137Z,93917.63
2022-09-09T18:53:36.934Z,93925.00
2022-09-09T18:56:06.238Z,93931.84
2022-09-09T18:58:34.094Z,93944.16
2022-09-09T19:01:02.021Z,93950.19
2022-09-09T19:03:30.519Z,93960.38
2022-09-09T19:06:03.045Z,93961.78
2022-09-09T19:08:30.573Z,93964.88
2022-09-09T19:10:59.806Z,93981.00
2022-09-09T19:13:27.794Z,93984.31
2022-09-09T19:15:55.753Z,93985.19
2022-09-09T19:18:23.682Z,93986.91
2022-09-09T19:20:51.231Z,93990.19
2022-09-09T19:23:20.138Z,93983.19
2022-09-09T19:25:47.829Z,93990.03
2022-09-09T19:28:15.361Z,93990.63
2022-09-09T19:30:47.616Z,93993.94
2022-09-09T19:33:15.208Z,93993.66
2022-09-09T19:35:42.726Z,93994.25
2022-09-09T19:38:10.292Z,93991.03
2022-09-09T19:40:40.305Z,93991.59
2022-09-09T19:43:07.892Z,94001.97
2022-09-09T19:45:35.429Z,94000.34
2022-09-09T19:48:03.407Z,94009.09
2022-09-09T19:50:30.929Z,94003.13
2022-09-09T19:53:00.635Z,93999.91
2022-09-09T19:55:28.969Z,94005.63
2022-09-09T19:57:58.092Z,94009.44
2022-09-09T20:00:26.020Z,94010.81
2022-09-09T20:03:17.497Z,94013.84
2022-09-09T20:05:42.025Z,94021.22
2022-09-09T20:08:09.560Z,94014.41
2022-09-09T20:10:37.084Z,94016.63
2022-09-09T20:13:06.066Z,94015.00
2022-09-09T20:15:35.308Z,94013.38
2022-09-09T20:18:04.503Z,94010.94
2022-09-09T20:20:32.221Z,94009.31
2022-09-09T20:22:59.890Z,94015.84
2022-09-09T20:25:27.438Z,94015.34
2022-09-09T20:27:54.962Z,94015.34
2022-09-09T20:30:23.910Z,94023.81
2022-09-09T20:32:51.522Z,94026.00
2022-09-09T20:35:19.044Z,94036.09
2022-09-09T20:37:46.812Z,94041.53
2022-09-09T20:40:14.815Z,94046.47
2022-09-09T20:42:43.261Z,94057.63
2022-09-09T20:45:16.093Z,94075.88
2022-09-09T20:47:44.974Z,94106.94
2022-09-09T20:50:12.613Z,94097.13
2022-09-09T20:52:40.133Z,94091.69
2022-09-09T20:55:08.866Z,94085.44
2022-09-09T20:57:36.948Z,94073.72
2022-09-09T21:00:05.608Z,94066.66
2022-09-09T21:02:33.284Z,94065.84
2022-09-09T21:05:02.295Z,94066.66
2022-09-09T21:07:29.935Z,94074.81
2022-09-09T21:09:57.600Z,94073.50
2022-09-09T21:12:25.187Z,94062.88
2022-09-09T21:14:52.789Z,94070.22
2022-09-09T21:17:23.400Z,94065.59
2022-09-09T21:19:51.015Z,94059.34
2022-09-09T21:22:19.873Z,94058.53
2022-09-09T21:24:47.806Z,94046.81
2022-09-09T21:27:15.468Z,94044.41
2022-09-09T21:29:43.067Z,94048.22
2022-09-09T21:32:10.582Z,94058.28
2022-09-09T21:34:38.085Z,94067.28
2022-09-09T21:37:05.733Z,94069.19
2022-09-09T21:39:34.836Z,94071.09
2022-09-09T21:42:02.552Z,94067.84
2022-09-09T21:44:30.107Z,94082.28
2022-09-09T21:46:57.637Z,94081.44
2022-09-09T21:49:25.149Z,94077.09
2022-09-09T21:51:52.888Z,94075.19
2022-09-09T21:54:20.571Z,94080.91
2022-09-09T21:56:52.210Z,94085.56
2022-09-09T21:59:20.356Z,94085.56
2022-09-09T22:01:48.252Z,94079.31
2022-09-09T22:04:15.861Z,94091.28
2022-09-09T22:06:43.403Z,94074.94
2022-09-09T22:09:11.280Z,94079.59
2022-09-09T22:11:40.768Z,94078.78
2022-09-09T22:14:09.669Z,94072.53
2022-09-09T22:16:37.225Z,94070.59
2022-09-09T22:19:04.748Z,94063.53
2022-09-09T22:21:32.876Z,94059.19
2022-09-09T22:24:01.461Z,94067.38
2022-09-09T22:26:31.574Z,94069.25
2022-09-09T22:28:59.273Z,94068.47
2022-09-09T22:31:28.478Z,94062.19
2022-09-09T22:33:56.121Z,94065.75
2022-09-09T22:36:23.781Z,94060.56
2022-09-09T22:38:51.713Z,94058.69
2022-09-09T22:41:19.855Z,94057.84
2022-09-09T22:43:47.739Z,94060.56
2022-09-09T22:46:15.385Z,94059.78
2022-09-09T22:48:44.350Z,94060.88
2022-09-09T22:51:13.262Z,94049.16
2022-09-09T22:53:41.320Z,94051.09
2022-09-09T22:56:10.117Z,94048.38
2022-09-09T22:58:37.820Z,94047.25
2022-09-09T23:01:09.843Z,94039.38
2022-09-09T23:03:37.439Z,94036.66
2022-09-09T23:06:06.721Z,94044.81
2022-09-09T23:08:35.446Z,94044.81
2022-09-09T23:11:08.904Z,94033.09
2022-09-09T23:13:36.996Z,94033.09
2022-09-09T23:16:10.468Z,94038.56
2022-09-09T23:18:40.298Z,94038.56
2022-09-09T23:21:09.585Z,94037.75
2022-09-09T23:23:37.738Z,94045.91
2022-09-09T23:26:05.501Z,94047.81
2022-09-09T23:28:33.262Z,94035.31
2022-09-09T23:31:00.951Z,94035.31
2022-09-09T23:33:28.548Z,94031.50
2022-09-09T23:36:02.205Z,94032.59
2022-09-09T23:38:31.127Z,94026.34
2022-09-09T23:40:59.107Z,94027.16
2022-09-09T23:43:26.648Z,94035.31
2022-09-09T23:45:54.179Z,94032.59
2022-09-09T23:48:21.722Z,94039.13
2022-09-09T23:50:50.643Z,94039.94
2022-09-09T23:53:18.216Z,94043.47
2022-09-09T23:55:47.080Z,94052.72
2022-09-09T23:58:15.056Z,94054.66
